Time;durP1;ratioP1;P1;durP2;ratioP2;P2;SDS_P1;SDS_P2;PMS_P1;PMS_P2;Temp;Humidity;BMP_temperature;BMP_pressure;BME280_temperature;BME280_humidity;BME280_pressure;Samples;Min_cycle;Max_cycle;Signal;HPM_P1;HPM_P2
2023/03/22 00:00:55;;;;;;;46.97;38.10;;;;;;;7.99;100.00;100722.97;5019697;28;20195;-46
2023/03/22 00:03:22;;;;;;;46.17;37.30;;;;;;;7.99;100.00;100730.97;5020119;28;20211;-45
2023/03/22 00:05:48;;;;;;;44.45;38.50;;;;;;;7.92;100.00;100730.28;5021097;28;20209;-46
2023/03/22 00:08:14;;;;;;;49.30;36.85;;;;;;;7.91;100.00;100727.66;5015119;28;20180;-45
2023/03/22 00:10:41;;;;;;;48.22;38.50;;;;;;;7.88;100.00;100723.28;5018703;28;20598;-45
2023/03/22 00:13:09;;;;;;;46.40;38.10;;;;;;;7.87;100.00;100716.22;5016002;28;20211;-46
2023/03/22 00:15:35;;;;;;;45.25;37.58;;;;;;;7.84;100.00;100719.81;4983845;28;20216;-46
2023/03/22 00:18:02;;;;;;;53.03;39.20;;;;;;;7.89;100.00;100719.69;5019615;28;20179;-46
2023/03/22 00:20:32;;;;;;;46.47;38.20;;;;;;;7.88;100.00;100722.41;5020944;28;20212;-46
2023/03/22 00:22:59;;;;;;;45.95;39.67;;;;;;;7.82;100.00;100713.66;5024847;28;20180;-45
2023/03/22 00:25:25;;;;;;;47.47;38.03;;;;;;;7.79;100.00;100715.56;5016386;28;20231;-46
2023/03/22 00:27:51;;;;;;;49.75;38.75;;;;;;;7.87;100.00;100720.66;5014090;28;20234;-46
2023/03/22 00:30:17;;;;;;;46.58;38.00;;;;;;;7.77;100.00;100710.25;5015843;28;20184;-45
2023/03/22 00:32:43;;;;;;;46.33;38.60;;;;;;;7.78;100.00;100717.34;5019624;28;20172;-47
2023/03/22 00:35:09;;;;;;;47.10;38.90;;;;;;;7.82;100.00;100708.31;4997063;28;20262;-47
2023/03/22 00:37:37;;;;;;;45.97;36.63;;;;;;;7.83;100.00;100703.88;5022671;28;20200;-47
2023/03/22 00:40:12;;;;;;;53.53;38.95;;;;;;;7.81;100.00;100695.91;5012814;28;20176;-46
2023/03/22 00:42:40;;;;;;;46.42;38.42;;;;;;;7.79;100.00;100687.06;5011628;28;20239;-44
2023/03/22 00:45:07;;;;;;;44.20;37.85;;;;;;;7.84;100.00;100690.47;5020458;28;20222;-44
2023/03/22 00:47:33;;;;;;;48.50;37.05;;;;;;;7.79;100.00;100679.06;5020954;28;20602;-44
2023/03/22 00:49:59;;;;;;;43.25;35.95;;;;;;;7.80;100.00;100678.13;5032139;28;20176;-44
2023/03/22 00:52:26;;;;;;;47.55;37.28;;;;;;;7.79;100.00;100671.06;5013530;28;20192;-45
2023/03/22 00:54:51;;;;;;;42.95;36.45;;;;;;;7.79;100.00;100676.41;5017726;28;20231;-43
2023/03/22 00:57:18;;;;;;;43.30;35.35;;;;;;;7.80;100.00;100687.94;5021371;28;20230;-44
2023/03/22 00:59:44;;;;;;;44.92;35.47;;;;;;;7.78;100.00;100666.69;5015168;28;20180;-44
2023/03/22 01:02:12;;;;;;;41.80;35.47;;;;;;;7.75;100.00;100661.41;5021397;28;20200;-44
2023/03/22 01:04:48;;;;;;;40.85;33.08;;;;;;;7.81;100.00;100665.72;5042113;28;20202;-45
2023/03/22 01:07:17;;;;;;;39.97;33.50;;;;;;;7.71;100.00;100657.09;5029711;28;20171;-45
2023/03/22 01:09:43;;;;;;;40.90;32.50;;;;;;;7.70;100.00;100655.34;5010968;28;20185;-43
2023/03/22 01:12:14;;;;;;;35.05;30.38;;;;;;;7.71;100.00;100654.41;5022219;28;20175;-43
2023/03/22 01:14:40;;;;;;;38.90;31.35;;;;;;;7.66;100.00;100653.69;5044701;28;20647;-44
2023/03/22 01:17:06;;;;;;;39.55;32.42;;;;;;;7.63;100.00;100653.75;5021391;28;20275;-47
2023/03/22 01:19:33;;;;;;;35.60;31.73;;;;;;;7.61;100.00;100656.50;5032883;28;20302;-47
2023/03/22 01:21:59;;;;;;;42.28;31.77;;;;;;;7.56;100.00;100646.88;4999521;28;20278;-45
2023/03/22 01:24:25;;;;;;;40.38;31.55;;;;;;;7.53;100.00;100646.97;5032098;28;20349;-46
2023/03/22 01:26:50;;;;;;;40.40;32.33;;;;;;;7.51;100.00;100635.47;5017368;28;20557;-48
2023/03/22 01:29:16;;;;;;;39.17;31.27;;;;;;;7.48;100.00;100632.88;5016920;28;20175;-47
2023/03/22 01:31:42;;;;;;;39.80;31.80;;;;;;;7.45;100.00;100639.16;5020695;28;20172;-47
2023/03/22 01:34:09;;;;;;;37.70;31.58;;;;;;;7.41;100.00;100622.41;5016916;28;20239;-47
2023/03/22 01:36:35;;;;;;;40.30;31.30;;;;;;;7.37;100.00;100628.75;5036302;28;20275;-46
2023/03/22 01:39:03;;;;;;;37.20;30.42;;;;;;;7.38;100.00;100617.16;5036848;28;20725;-46
2023/03/22 01:41:33;;;;;;;36.28;30.55;;;;;;;7.38;100.00;100618.94;5000674;28;20265;-47
2023/03/22 01:44:12;;;;;;;37.30;30.25;;;;;;;7.38;100.00;100617.16;5016333;28;20230;-47
2023/03/22 01:46:42;;;;;;;37.80;29.75;;;;;;;7.35;100.00;100614.59;5016071;28;20180;-48
2023/03/22 01:49:18;;;;;;;39.40;30.38;;;;;;;7.32;100.00;100613.78;5014219;28;20180;-48
2023/03/22 01:51:47;;;;;;;37.42;30.02;;;;;;;7.30;100.00;100611.16;5031747;28;20237;-47
2023/03/22 01:54:27;;;;;;;35.03;29.13;;;;;;;7.31;100.00;100598.72;5009548;28;20224;-44
2023/03/22 01:56:53;;;;;;;35.00;29.52;;;;;;;7.25;100.00;100589.09;5025543;28;20165;-44
2023/03/22 01:59:29;;;;;;;37.13;30.17;;;;;;;7.27;100.00;100589.94;5008852;28;20165;-44
2023/03/22 02:02:17;;;;;;;36.72;30.25;;;;;;;7.27;100.00;100592.59;5010252;28;20203;-46
2023/03/22 02:04:56;;;;;;;41.20;30.25;;;;;;;7.28;100.00;100594.38;5008373;28;20206;-45
2023/03/22 02:07:26;;;;;;;36.53;28.98;;;;;;;7.28;100.00;100588.13;5010173;28;20160;-44
2023/03/22 02:09:58;;;;;;;39.40;30.65;;;;;;;7.36;100.00;100591.47;5011045;23;20232;-45
2023/03/22 02:13:05;;;;;;;34.67;28.77;;;;;;;7.31;100.00;100572.94;4976630;28;20192;-45
2023/03/22 02:16:25;;;;;;;33.00;28.65;;;;;;;7.25;100.00;100589.09;4971528;28;20610;-44
2023/03/22 02:19:19;;;;;;;33.90;29.05;;;;;;;7.23;100.00;100575.81;4967786;28;20200;-46
2023/03/22 02:22:08;;;;;;;38.75;29.23;;;;;;;7.20;100.00;100585.72;4981176;28;20211;-46
2023/03/22 02:25:19;;;;;;;35.63;30.23;;;;;;;7.20;100.00;100577.72;4981869;28;20209;-44
2023/03/22 02:28:03;;;;;;;36.38;28.48;;;;;;;7.16;100.00;100582.25;4944819;28;20201;-45
2023/03/22 02:30:40;;;;;;;33.42;28.27;;;;;;;7.18;100.00;100576.88;4977563;28;20169;-44
2023/03/22 02:33:43;;;;;;;33.80;27.70;;;;;;;7.20;100.00;100575.03;4978820;28;20208;-45
2023/03/22 02:36:33;;;;;;;34.97;27.77;;;;;;;7.15;100.00;100582.28;4964441;28;20197;-45
2023/03/22 02:39:03;;;;;;;36.15;29.27;;;;;;;7.15;100.00;100576.94;4983712;28;20603;-46
2023/03/22 02:42:03;;;;;;;35.28;28.98;;;;;;;7.16;100.00;100570.72;4967266;28;20178;-45
2023/03/22 02:44:48;;;;;;;31.95;28.52;;;;;;;7.15;100.00;100574.28;4964121;28;20688;-45
2023/03/22 02:47:39;;;;;;;34.50;28.17;;;;;;;7.16;100.00;100576.03;4974954;28;20218;-44
2023/03/22 02:50:09;;;;;;;37.25;28.15;;;;;;;7.17;100.00;100564.47;4982227;28;20184;-45
2023/03/22 02:52:40;;;;;;;35.08;28.42;;;;;;;7.16;100.00;100568.91;4982445;28;20183;-46
2023/03/22 02:55:08;;;;;;;36.53;28.80;;;;;;;7.16;100.00;100565.38;4983687;28;20637;-46
2023/03/22 02:57:47;;;;;;;33.80;28.15;;;;;;;7.20;100.00;100561.72;4959709;28;20215;-46
2023/03/22 03:00:15;;;;;;;35.97;30.60;;;;;;;7.26;100.00;100566.00;4980570;28;20176;-47
2023/03/22 03:02:51;;;;;;;36.17;28.88;;;;;;;7.31;100.00;100559.63;4970428;28;20613;-45
2023/03/22 03:05:19;;;;;;;36.78;29.80;;;;;;;7.31;100.00;100561.41;4986232;28;20726;-45
2023/03/22 03:07:50;;;;;;;37.55;30.95;;;;;;;7.35;100.00;100553.28;4977296;28;20185;-45
2023/03/22 03:10:17;;;;;;;38.38;28.88;;;;;;;7.39;100.00;100551.38;4981201;28;20200;-45
2023/03/22 03:12:42;;;;;;;35.88;30.38;;;;;;;7.43;100.00;100545.03;4997570;28;20276;-45
2023/03/22 03:15:14;;;;;;;34.92;29.75;;;;;;;7.46;100.00;100538.78;4987762;28;20704;-45
2023/03/22 03:17:45;;;;;;;36.65;30.17;;;;;;;7.48;100.00;100537.81;5005142;28;20679;-47
2023/03/22 03:20:33;;;;;;;33.38;28.95;;;;;;;7.47;100.00;100536.03;4998977;28;20299;-44
2023/03/22 03:23:18;;;;;;;36.10;28.45;;;;;;;7.48;100.00;100543.13;4983165;28;20288;-46
2023/03/22 03:26:02;;;;;;;37.72;30.02;;;;;;;7.47;100.00;100540.50;5001543;28;20209;-46
2023/03/22 03:28:37;;;;;;;31.23;27.83;;;;;;;7.49;100.00;100533.34;4993061;28;20520;-47
2023/03/22 03:31:12;;;;;;;35.13;28.92;;;;;;;7.50;100.00;100538.63;4998623;28;20188;-47
2023/03/22 03:33:48;;;;;;;34.55;28.27;;;;;;;7.53;100.00;100543.00;4994064;28;20184;-47
2023/03/22 03:36:16;;;;;;;35.92;29.33;;;;;;;7.54;100.00;100537.63;5000309;28;20247;-45
2023/03/22 03:38:47;;;;;;;35.15;28.42;;;;;;;7.52;100.00;100531.47;4999470;28;20545;-46
2023/03/22 03:41:16;;;;;;;42.25;29.60;;;;;;;7.52;100.00;100530.56;4998713;28;20177;-46
2023/03/22 03:43:44;;;;;;;34.17;28.88;;;;;;;7.50;100.00;100532.41;4992745;28;20216;-44
2023/03/22 03:46:10;;;;;;;36.08;30.52;;;;;;;7.50;100.00;100529.75;4981294;28;20749;-46
2023/03/22 03:48:38;;;;;;;34.88;29.40;;;;;;;7.50;100.00;100535.97;4990587;28;20185;-47
2023/03/22 03:51:03;;;;;;;37.47;30.40;;;;;;;7.54;100.00;100526.06;4987940;28;20185;-45
2023/03/22 03:53:30;;;;;;;36.05;29.58;;;;;;;7.52;100.00;100515.47;4990588;28;20198;-45
2023/03/22 03:55:56;;;;;;;35.70;29.20;;;;;;;7.58;100.00;100527.72;5001159;28;20291;-47
2023/03/22 03:58:24;;;;;;;37.33;29.55;;;;;;;7.61;100.00;100519.66;4991481;28;20250;-47
2023/03/22 04:00:50;;;;;;;32.83;28.70;;;;;;;7.63;100.00;100507.13;4983974;28;20177;-46
2023/03/22 04:03:38;;;;;;;32.22;27.27;;;;;;;7.64;100.00;100519.53;4985617;28;20208;-45
2023/03/22 04:06:22;;;;;;;34.85;28.55;;;;;;;7.65;100.00;100523.94;4997180;28;20191;-44
2023/03/22 04:08:55;;;;;;;33.85;29.48;;;;;;;7.63;100.00;100513.34;4982553;28;20199;-44
2023/03/22 04:11:24;;;;;;;38.58;28.88;;;;;;;7.66;100.00;100514.16;5002629;28;20607;-44
2023/03/22 04:13:54;;;;;;;34.35;28.98;;;;;;;7.66;100.00;100516.84;4984410;28;20193;-46
2023/03/22 04:16:23;;;;;;;35.58;28.75;;;;;;;7.68;100.00;100507.84;4979640;28;20187;-47
2023/03/22 04:18:50;;;;;;;32.30;28.73;;;;;;;7.68;100.00;100512.31;4984362;28;20287;-47
2023/03/22 04:21:15;;;;;;;35.45;28.77;;;;;;;7.68;100.00;100515.84;5000922;28;20250;-47
2023/03/22 04:24:08;;;;;;;35.72;29.02;;;;;;;7.70;100.00;100502.50;4998437;28;20228;-47
2023/03/22 04:26:37;;;;;;;36.72;30.55;;;;;;;7.69;100.00;100493.59;4985564;28;20189;-46
2023/03/22 04:29:15;;;;;;;37.28;28.88;;;;;;;7.74;100.00;100491.69;4989540;28;20192;-46
2023/03/22 04:31:45;;;;;;;33.08;27.77;;;;;;;7.73;100.00;100489.03;4993319;28;20694;-45
2023/03/22 04:34:37;;;;;;;35.20;29.63;;;;;;;7.71;100.00;100482.88;4994308;28;20241;-48
2023/03/22 04:37:08;;;;;;;37.00;29.17;;;;;;;7.67;100.00;100479.44;4997589;28;20180;-47
2023/03/22 04:39:36;;;;;;;39.08;28.85;;;;;;;7.68;100.00;100486.53;5005224;28;20188;-45
2023/03/22 04:42:17;;;;;;;35.17;29.23;;;;;;;7.67;100.00;100474.09;4992274;28;20289;-48
2023/03/22 04:44:44;;;;;;;35.15;28.30;;;;;;;7.69;100.00;100476.72;4980108;28;20212;-47
2023/03/22 04:47:10;;;;;;;38.75;29.17;;;;;;;7.71;100.00;100475.75;4993550;28;20191;-47
2023/03/22 04:49:36;;;;;;;33.88;27.95;;;;;;;7.69;100.00;100472.25;4985481;28;20174;-46
2023/03/22 04:52:02;;;;;;;33.88;29.50;;;;;;;7.70;100.00;100462.50;4978806;28;20185;-46
2023/03/22 04:54:33;;;;;;;34.10;29.70;;;;;;;7.71;100.00;100474.88;4996609;28;20750;-47
2023/03/22 04:56:59;;;;;;;35.90;29.75;;;;;;;7.69;100.00;100458.94;5000607;28;20294;-46
2023/03/22 04:59:27;;;;;;;37.75;29.60;;;;;;;7.71;100.00;100459.75;4987931;28;20279;-47
2023/03/22 05:01:53;;;;;;;35.50;29.27;;;;;;;7.72;100.00;100463.28;4996212;28;20183;-46
2023/03/22 05:04:23;;;;;;;35.03;30.17;;;;;;;7.73;100.00;100463.25;5000315;28;20217;-48
2023/03/22 05:06:55;;;;;;;34.17;29.05;;;;;;;7.72;100.00;100460.63;4976836;28;20652;-46
2023/03/22 05:09:27;;;;;;;38.72;31.05;;;;;;;7.73;100.00;100457.91;4982249;28;20193;-45
2023/03/22 05:11:53;;;;;;;33.55;29.20;;;;;;;7.71;100.00;100465.09;5001841;28;20213;-47
2023/03/22 05:14:45;;;;;;;36.33;30.35;;;;;;;7.74;100.00;100457.00;4994019;28;20217;-46
2023/03/22 05:17:12;;;;;;;38.78;31.05;;;;;;;7.72;100.00;100456.19;4990246;28;20181;-49
2023/03/22 05:19:39;;;;;;;34.47;30.20;;;;;;;7.71;100.00;100456.22;4978915;28;20243;-46
2023/03/22 05:22:04;;;;;;;35.58;29.20;;;;;;;7.75;100.00;100458.75;4979091;28;20245;-47
2023/03/22 05:24:45;;;;;;;39.60;29.92;;;;;;;7.77;100.00;100454.22;4993920;28;20267;-46
2023/03/22 05:27:15;;;;;;;35.58;29.63;;;;;;;7.77;100.00;100454.22;4997888;28;20219;-45
2023/03/22 05:29:43;;;;;;;33.55;28.67;;;;;;;7.78;100.00;100452.41;4981228;28;20193;-46
2023/03/22 05:32:17;;;;;;;35.08;29.60;;;;;;;7.81;100.00;100457.69;4985052;28;20713;-46
2023/03/22 05:34:47;;;;;;;33.88;29.83;;;;;;;7.79;100.00;100452.38;4993506;28;20209;-47
2023/03/22 05:37:32;;;;;;;33.72;29.20;;;;;;;7.87;100.00;100454.81;4993897;28;20196;-46
2023/03/22 05:39:59;;;;;;;35.65;29.23;;;;;;;7.83;100.00;100451.38;4997497;28;20195;-46
2023/03/22 05:42:33;;;;;;;34.83;28.65;;;;;;;7.81;100.00;100458.53;4998173;28;20199;-47
2023/03/22 05:45:02;;;;;;;34.58;28.25;;;;;;;7.82;100.00;100457.59;4984688;28;20571;-47
2023/03/22 05:47:28;;;;;;;35.22;28.25;;;;;;;7.82;100.00;100462.94;4984574;28;20195;-46
2023/03/22 05:50:06;;;;;;;32.97;27.90;;;;;;;7.85;100.00;100451.31;4978367;28;20555;-45
2023/03/22 05:52:32;;;;;;;31.30;27.48;;;;;;;7.88;100.00;100450.34;4995639;28;20279;-46
2023/03/22 05:55:17;;;;;;;31.10;26.60;;;;;;;7.92;100.00;100455.53;4992783;28;20235;-46
2023/03/22 05:57:45;;;;;;;35.35;28.05;;;;;;;7.89;100.00;100442.28;4984644;28;20242;-47
2023/03/22 06:00:15;;;;;;;31.50;26.88;;;;;;;7.91;100.00;100440.41;4984046;28;20187;-45
2023/03/22 06:03:02;;;;;;;32.08;27.40;;;;;;;7.93;100.00;100435.03;5004421;28;20263;-46
2023/03/22 06:05:31;;;;;;;31.52;26.65;;;;;;;8.00;100.00;100431.25;4998743;28;20628;-45
2023/03/22 06:07:57;;;;;;;29.65;26.27;;;;;;;8.00;100.00;100432.13;4999003;28;20288;-46
2023/03/22 06:10:25;;;;;;;30.90;24.98;;;;;;;8.05;100.00;100426.63;4999336;28;20192;-45
2023/03/22 06:12:52;;;;;;;34.10;25.50;;;;;;;8.03;100.00;100432.00;4988266;28;20235;-46
2023/03/22 06:15:24;;;;;;;33.22;24.75;;;;;;;8.05;100.00;100422.16;4992097;28;20339;-46
2023/03/22 06:17:52;;;;;;;29.73;24.30;;;;;;;8.09;100.00;100411.38;5002548;28;20248;-48
2023/03/22 06:20:22;;;;;;;27.52;23.58;;;;;;;8.08;100.00;100415.84;4981583;28;20281;-47
2023/03/22 06:22:53;;;;;;;25.70;22.40;;;;;;;8.11;100.00;100407.75;4993761;28;20260;-45
2023/03/22 06:25:19;;;;;;;30.75;23.27;;;;;;;8.15;100.00;100416.50;5008517;28;20294;-46
2023/03/22 06:27:47;;;;;;;26.70;23.08;;;;;;;8.13;100.00;100402.34;5001302;28;20174;-45
2023/03/22 06:30:13;;;;;;;25.40;22.63;;;;;;;8.13;100.00;100410.34;5005650;28;20181;-45
2023/03/22 06:32:59;;;;;;;24.83;20.77;;;;;;;8.19;100.00;100395.00;4989803;28;20175;-48
2023/03/22 06:35:26;;;;;;;27.77;21.33;;;;;;;8.17;100.00;100396.84;4988810;28;20204;-47
2023/03/22 06:37:51;;;;;;;25.75;20.23;;;;;;;8.17;100.00;100403.97;4984506;28;20268;-45
2023/03/22 06:40:17;;;;;;;22.40;19.15;;;;;;;8.23;100.00;100417.13;4981819;28;20197;-47
2023/03/22 06:42:45;;;;;;;22.35;18.63;;;;;;;8.24;100.00;100406.41;4987671;28;20267;-46
2023/03/22 06:45:15;;;;;;;24.42;18.52;;;;;;;8.28;100.00;100403.59;4981575;28;20209;-45
2023/03/22 06:47:43;;;;;;;20.58;18.10;;;;;;;8.29;100.00;100418.69;4993888;28;20291;-46
2023/03/22 06:50:21;;;;;;;20.83;17.77;;;;;;;8.30;100.00;100417.78;5003670;28;20678;-45
2023/03/22 06:52:55;;;;;;;22.20;16.90;;;;;;;8.32;100.00;100407.91;4976646;28;20189;-46
2023/03/22 06:55:21;;;;;;;20.85;16.38;;;;;;;8.34;100.00;100414.06;4982288;28;20205;-45
2023/03/22 06:57:48;;;;;;;24.48;17.70;;;;;;;8.32;100.00;100399.91;4992195;28;20240;-48
2023/03/22 07:00:14;;;;;;;21.58;16.55;;;;;;;8.33;100.00;100399.84;4994243;28;20181;-44
2023/03/22 07:02:39;;;;;;;18.60;16.08;;;;;;;8.35;100.00;100398.00;4992419;28;20200;-45
2023/03/22 07:05:15;;;;;;;21.40;15.88;;;;;;;8.37;100.00;100400.59;5000836;28;20208;-45
2023/03/22 07:07:41;;;;;;;21.50;16.73;;;;;;;8.38;100.00;100405.03;4981526;28;20293;-46
2023/03/22 07:10:07;;;;;;;19.08;15.10;;;;;;;8.45;100.00;100396.75;4996130;28;20181;-46
2023/03/22 07:12:32;;;;;;;16.73;14.93;;;;;;;8.41;100.00;100408.47;4977475;28;20192;-45
2023/03/22 07:15:04;;;;;;;17.33;14.40;;;;;;;8.47;100.00;100386.03;5001409;28;20215;-46
2023/03/22 07:17:44;;;;;;;18.80;14.32;;;;;;;8.48;100.00;100390.44;4992517;28;20233;-46
2023/03/22 07:20:10;;;;;;;21.42;13.32;;;;;;;8.53;100.00;100392.97;4992255;28;20806;-45
2023/03/22 07:22:35;;;;;;;16.33;13.57;;;;;;;8.53;100.00;100382.28;4995089;28;20197;-46
2023/03/22 07:25:01;;;;;;;15.55;12.43;;;;;;;8.55;100.00;100377.72;4993282;28;20200;-46
2023/03/22 07:27:28;;;;;;;17.25;12.25;;;;;;;8.59;100.00;100382.03;4980726;28;20192;-46
2023/03/22 07:29:55;;;;;;;17.35;12.40;;;;;;;8.60;100.00;100384.66;5000754;28;20189;-46
2023/03/22 07:32:21;;;;;;;19.58;13.00;;;;;;;8.61;100.00;100381.03;4999565;28;20183;-42
2023/03/22 07:35:13;;;;;;;16.75;12.25;;;;;;;8.65;100.00;100382.66;5000738;28;20719;-47
2023/03/22 07:37:39;;;;;;;17.65;12.82;;;;;;;8.69;100.00;100369.22;4981886;28;20193;-47
2023/03/22 07:40:13;;;;;;;21.30;12.23;;;;;;;8.70;100.00;100362.94;4984832;28;20243;-45
2023/03/22 07:42:38;;;;;;;15.98;12.07;;;;;;;8.78;100.00;100374.19;4998396;28;20201;-47
2023/03/22 07:45:27;;;;;;;16.55;11.23;;;;;;;8.79;100.00;100358.13;5002405;28;20217;-48
2023/03/22 07:48:11;;;;;;;18.63;11.82;;;;;;;8.81;100.00;100353.59;5003560;28;20187;-47
2023/03/22 07:51:05;;;;;;;16.33;11.02;;;;;;;8.85;100.00;100351.66;4997117;28;20224;-45
2023/03/22 07:53:31;;;;;;;16.27;12.07;;;;;;;8.84;100.00;100341.91;4996632;28;20605;-46
2023/03/22 07:55:56;;;;;;;12.80;9.82;;;;;;;8.87;100.00;100337.31;4977880;28;20312;-47
2023/03/22 07:58:22;;;;;;;12.50;9.80;;;;;;;8.92;100.00;100338.94;4994736;28;20726;-47
2023/03/22 08:00:48;;;;;;;14.20;10.68;;;;;;;8.91;100.00;100316.69;4980199;28;20181;-46
2023/03/22 08:03:39;;;;;;;15.68;10.35;;;;;;;9.00;100.00;100320.81;5003772;28;20291;-45
2023/03/22 08:06:28;;;;;;;12.50;10.18;;;;;;;9.00;100.00;100323.47;4996754;28;20696;-45
2023/03/22 08:08:54;;;;;;;16.00;9.85;;;;;;;9.02;100.00;100309.13;5014106;23;20227;-45
2023/03/22 08:11:19;;;;;;;15.30;9.68;;;;;;;9.10;100.00;100311.50;4979926;28;20276;-44
2023/03/22 08:13:45;;;;;;;14.70;9.82;;;;;;;9.13;100.00;100299.81;4996166;28;20212;-45
2023/03/22 08:16:11;;;;;;;10.80;8.90;;;;;;;9.12;100.00;100308.75;4998340;28;20726;-46
2023/03/22 08:18:37;;;;;;;12.98;9.20;;;;;;;9.19;100.00;100287.06;4998613;28;20577;-46
2023/03/22 08:21:04;;;;;;;16.30;8.80;;;;;;;9.24;100.00;100281.53;4974149;28;20285;-47
2023/03/22 08:23:32;;;;;;;11.52;8.07;;;;;;;9.32;100.00;100281.22;4998700;28;20296;-45
2023/03/22 08:26:18;;;;;;;13.15;8.65;;;;;;;9.37;100.00;100265.84;4997547;28;20552;-49
2023/03/22 08:28:49;;;;;;;12.18;8.02;;;;;;;9.43;100.00;100265.59;4997414;28;20239;-46
2023/03/22 08:31:16;;;;;;;14.05;8.05;;;;;;;9.49;100.00;100258.16;4990647;28;20169;-44
2023/03/22 08:33:43;;;;;;;11.65;7.68;;;;;;;9.52;100.00;100249.13;4977908;28;20272;-46
2023/03/22 08:36:12;;;;;;;12.63;7.88;;;;;;;9.56;100.00;100240.06;4991980;28;20738;-48
2023/03/22 08:38:45;;;;;;;14.48;8.00;;;;;;;9.57;100.00;100241.78;4984145;28;20188;-46
2023/03/22 08:41:14;;;;;;;12.77;7.93;;;;;;;9.68;100.00;100246.66;4990848;28;20177;-44
2023/03/22 08:43:41;;;;;;;11.40;7.57;;;;;;;9.79;100.00;100235.50;5007066;28;20222;-46
2023/03/22 08:46:07;;;;;;;11.48;8.15;;;;;;;9.92;100.00;100246.50;4974161;28;20205;-44
2023/03/22 08:48:34;;;;;;;10.27;8.32;;;;;;;10.02;100.00;100248.72;5008298;28;20193;-44
2023/03/22 08:51:20;;;;;;;10.10;7.85;;;;;;;10.06;100.00;100250.31;5001498;28;20603;-44
2023/03/22 08:53:58;;;;;;;11.63;7.78;;;;;;;10.16;100.00;100239.19;4994693;28;20551;-50
2023/03/22 08:56:43;;;;;;;12.68;8.27;;;;;;;10.11;100.00;100242.94;4991565;28;20184;-46
2023/03/22 08:59:27;;;;;;;14.93;8.70;;;;;;;10.07;100.00;100241.31;4990867;28;20264;-45
2023/03/22 09:02:11;;;;;;;12.55;8.82;;;;;;;10.10;100.00;100259.06;4993315;28;20185;-44
2023/03/22 09:04:37;;;;;;;13.45;9.38;;;;;;;10.07;100.00;100246.69;5002231;28;20209;-44
2023/03/22 09:07:02;;;;;;;14.48;9.25;;;;;;;10.09;100.00;100255.50;4999635;28;20189;-47
2023/03/22 09:09:28;;;;;;;15.45;9.68;;;;;;;10.22;100.00;100250.47;4998955;28;20259;-49
2023/03/22 09:11:56;;;;;;;13.07;10.02;;;;;;;10.34;100.00;100249.06;4994678;28;20188;-45
2023/03/22 09:14:22;;;;;;;16.60;10.68;;;;;;;10.61;100.00;100241.53;4992685;28;20263;-43
2023/03/22 09:16:48;;;;;;;12.95;10.30;;;;;;;10.85;100.00;100239.50;4990945;28;20189;-43
2023/03/22 09:19:14;;;;;;;13.50;10.20;;;;;;;11.07;100.00;100241.97;4989733;28;20185;-47
2023/03/22 09:21:40;;;;;;;15.30;10.80;;;;;;;11.17;100.00;100234.31;5006664;28;20185;-45
2023/03/22 09:24:15;;;;;;;12.77;11.07;;;;;;;11.00;100.00;100228.94;4979376;28;20224;-47
2023/03/22 09:26:49;;;;;;;12.13;10.38;;;;;;;10.90;100.00;100220.50;4988458;28;20185;-45
2023/03/22 09:29:18;;;;;;;15.63;11.10;;;;;;;10.89;100.00;100229.50;4978841;28;20193;-46
2023/03/22 09:31:47;;;;;;;14.45;10.65;;;;;;;10.89;100.00;100225.00;4988556;28;20669;-45
2023/03/22 09:34:19;;;;;;;13.10;11.15;;;;;;;10.84;100.00;100216.28;5000839;28;20204;-46
2023/03/22 09:36:46;;;;;;;13.77;11.20;;;;;;;11.09;100.00;100215.97;5004399;28;20188;-47
2023/03/22 09:39:15;;;;;;;13.48;11.25;;;;;;;11.22;100.00;100218.03;4982426;28;20778;-45
2023/03/22 09:41:50;;;;;;;15.10;11.60;;;;;;;11.24;100.00;100208.97;4996180;28;20196;-46
2023/03/22 09:44:25;;;;;;;12.75;10.13;;;;;;;11.17;100.00;100206.66;4994756;28;20209;-43
2023/03/22 09:46:54;;;;;;;14.25;11.63;;;;;;;11.08;100.00;100208.00;4989233;28;20204;-45
2023/03/22 09:49:25;;;;;;;12.07;10.85;;;;;;;11.14;100.00;100199.63;4990477;28;20305;-43
2023/03/22 09:51:52;;;;;;;16.55;10.60;;;;;;;11.15;100.00;100198.72;4990466;28;20188;-45
2023/03/22 09:54:23;;;;;;;14.13;11.10;;;;;;;11.08;100.00;100198.13;4990762;28;20201;-44
2023/03/22 09:57:01;;;;;;;16.40;11.45;;;;;;;11.17;100.00;100193.25;4990892;28;20177;-47
2023/03/22 09:59:57;;;;;;;13.30;11.52;;;;;;;11.19;100.00;100189.53;4990665;28;20245;-46
2023/03/22 10:02:40;;;;;;;12.50;10.55;;;;;;;11.24;100.00;100170.53;4992185;28;20616;-44
2023/03/22 10:05:53;;;;;;;16.30;10.10;;;;;;;11.44;100.00;100182.94;5000647;28;20381;-44
2023/03/22 10:08:22;;;;;;;13.52;10.27;;;;;;;11.33;100.00;100184.34;4969304;28;20197;-43
2023/03/22 10:10:50;;;;;;;15.68;10.45;;;;;;;11.42;100.00;100177.63;4992134;28;20186;-43
2023/03/22 10:13:28;;;;;;;14.43;10.68;;;;;;;11.53;100.00;100185.13;4993498;28;20235;-41
2023/03/22 10:16:00;;;;;;;14.32;10.13;;;;;;;11.40;100.00;100192.94;4998234;28;20774;-42
2023/03/22 10:18:36;;;;;;;12.23;10.35;;;;;;;11.53;100.00;100182.44;4985904;28;20189;-44
2023/03/22 10:21:08;;;;;;;12.43;9.88;;;;;;;11.49;100.00;100186.22;4999638;28;20199;-44
2023/03/22 10:23:59;;;;;;;12.93;10.07;;;;;;;11.50;100.00;100178.13;5002337;28;20207;-45
2023/03/22 10:26:29;;;;;;;12.30;10.02;;;;;;;11.66;100.00;100171.94;4995969;28;20249;-44
2023/03/22 10:29:02;;;;;;;16.25;10.25;;;;;;;11.60;100.00;100177.63;4993882;28;20181;-43
2023/03/22 10:31:29;;;;;;;14.77;10.15;;;;;;;11.62;100.00;100168.53;4997671;28;20196;-43
2023/03/22 10:34:02;;;;;;;15.88;10.50;;;;;;;11.64;100.00;100168.47;4995704;28;20193;-42
2023/03/22 10:36:33;;;;;;;14.00;10.00;;;;;;;11.66;100.00;100169.25;4999971;28;20801;-43
2023/03/22 10:39:43;;;;;;;12.60;9.45;;;;;;;11.75;100.00;100177.66;4994119;28;20182;-42
2023/03/22 10:42:15;;;;;;;15.32;9.95;;;;;;;11.66;100.00;100170.09;4985391;28;20297;-47
2023/03/22 10:44:46;;;;;;;11.60;9.73;;;;;;;11.61;100.00;100182.03;4993753;28;20356;-48
2023/03/22 10:47:16;;;;;;;11.82;8.93;;;;;;;11.58;100.00;100179.50;4993833;28;20182;-44
2023/03/22 10:49:45;;;;;;;13.88;9.32;;;;;;;11.61;100.00;100169.50;4992391;28;20790;-45
2023/03/22 10:52:22;;;;;;;13.13;9.65;;;;;;;11.70;100.00;100186.94;4992462;28;20656;-47
2023/03/22 10:54:48;;;;;;;17.30;9.43;;;;;;;11.61;100.00;100177.56;4993892;28;20197;-45
2023/03/22 10:57:13;;;;;;;12.80;9.05;;;;;;;11.81;100.00;100168.44;4993821;28;20176;-47
2023/03/22 10:59:50;;;;;;;12.88;8.45;;;;;;;11.96;100.00;100172.13;4994036;28;20173;-45
2023/03/22 11:02:31;;;;;;;14.57;9.55;;;;;;;11.98;100.00;100178.25;4992628;28;20208;-45
2023/03/22 11:05:02;;;;;;;10.68;8.38;;;;;;;12.09;100.00;100166.94;4993835;28;20296;-43
2023/03/22 11:07:31;;;;;;;11.98;7.45;;;;;;;12.12;100.00;100166.78;4993658;28;20169;-45
2023/03/22 11:09:58;;;;;;;13.05;7.80;;;;;;;12.05;99.49;100162.72;4993793;28;20610;-45
2023/03/22 11:12:24;;;;;;;11.10;7.72;;;;;;;12.00;98.83;100159.38;4993295;28;20488;-46
2023/03/22 11:14:51;;;;;;;10.02;7.47;;;;;;;12.01;98.72;100153.94;4993367;28;20208;-49
2023/03/22 11:17:24;;;;;;;15.95;6.85;;;;;;;12.01;97.99;100147.72;4993302;28;20718;-45
2023/03/22 11:19:57;;;;;;;13.32;7.65;;;;;;;12.03;97.42;100160.09;4993475;28;20178;-49
2023/03/22 11:22:32;;;;;;;10.55;7.30;;;;;;;12.01;97.20;100155.78;5004952;28;20225;-45
2023/03/22 11:24:58;;;;;;;10.82;7.30;;;;;;;12.04;96.89;100153.75;5008574;28;20345;-45
2023/03/22 11:27:27;;;;;;;14.32;7.40;;;;;;;12.08;96.24;100157.16;4992905;28;20326;-45
2023/03/22 11:29:58;;;;;;;12.50;7.05;;;;;;;12.15;95.71;100159.41;4993831;28;20188;-46
2023/03/22 11:32:29;;;;;;;10.93;7.03;;;;;;;12.20;94.79;100159.19;4999063;28;20659;-46